KCOS/COS METAR and TAF weather

Enter ICAO airport designator
Station Type Date Time Source
KCOS METAR 2020/01/19 22:54 UTC NOAA

KCOS 192254Z 16004KT 10SM FEW200 05/M13 A3040 RMK AO2 SLP333 T00501128


Station Type Date Time Source
KCOS Decoded METAR 2020/01/19 22:54 UTC NOAA

COLORADO SPRINGS MUNI, CO, United States (KCOS) 38-49N 104-43W 1856M
Jan 19, 2020 - 05:54 PM EST / 2020.01.19 2254 UTC
Wind: from the SSE (160 degrees) at 5 MPH (4 KT):0
Visibility: 10 mile(s):0
Sky conditions: mostly clear
Temperature: 41.0 F (5.0 C)
Dew Point: 9.0 F (-12.8 C)
Relative Humidity: 26%
Pressure (altimeter): 30.4 in. Hg (1029 hPa)
ob: KCOS 192254Z 16004KT 10SM FEW200 05/M13 A3040 RMK AO2 SLP333 T00501128
cycle: 23

Station Type Date Time Source
KCOS TAF 2020/01/19 18:42 UTC NOAA

TAF KCOS 191741Z 1918/2018 12007KT P6SM FEW200
FM192000 16010KT P6SM FEW200
FM200200 03006KT P6SM FEW200

Example: see airport list